sensor_id;sensor_type;location;lat;lon;timestamp;temperature;humidity
68385;DHT22;55336;43.062;25.626;2023-03-31T00:01:39;3.80;99.90
68385;DHT22;55336;43.062;25.626;2023-03-31T00:04:08;3.70;99.90
68385;DHT22;55336;43.062;25.626;2023-03-31T00:06:38;3.60;99.90
68385;DHT22;55336;43.062;25.626;2023-03-31T00:09:10;3.50;99.90
68385;DHT22;55336;43.062;25.626;2023-03-31T00:11:36;3.40;99.90
68385;DHT22;55336;43.062;25.626;2023-03-31T00:14:02;3.40;99.90
68385;DHT22;55336;43.062;25.626;2023-03-31T00:16:28;3.30;99.90
68385;DHT22;55336;43.062;25.626;2023-03-31T00:18:54;3.20;99.90
68385;DHT22;55336;43.062;25.626;2023-03-31T00:21:21;3.10;99.90
68385;DHT22;55336;43.062;25.626;2023-03-31T00:23:53;3.10;99.90
68385;DHT22;55336;43.062;25.626;2023-03-31T00:26:19;3.00;99.90
68385;DHT22;55336;43.062;25.626;2023-03-31T00:28:47;2.90;99.90
68385;DHT22;55336;43.062;25.626;2023-03-31T00:31:12;2.80;99.90
68385;DHT22;55336;43.062;25.626;2023-03-31T00:33:38;2.70;99.90
68385;DHT22;55336;43.062;25.626;2023-03-31T00:36:05;2.70;99.90
68385;DHT22;55336;43.062;25.626;2023-03-31T00:38:31;2.60;99.90
68385;DHT22;55336;43.062;25.626;2023-03-31T00:40:58;2.60;99.90
68385;DHT22;55336;43.062;25.626;2023-03-31T00:43:26;2.50;99.90
68385;DHT22;55336;43.062;25.626;2023-03-31T00:45:54;2.40;99.90
68385;DHT22;55336;43.062;25.626;2023-03-31T00:48:20;2.30;99.90
68385;DHT22;55336;43.062;25.626;2023-03-31T00:50:57;2.30;99.90
68385;DHT22;55336;43.062;25.626;2023-03-31T00:53:24;2.30;99.90
68385;DHT22;55336;43.062;25.626;2023-03-31T00:55:52;2.20;99.90
68385;DHT22;55336;43.062;25.626;2023-03-31T00:58:18;2.20;99.90
68385;DHT22;55336;43.062;25.626;2023-03-31T01:00:48;2.10;99.90
68385;DHT22;55336;43.062;25.626;2023-03-31T01:03:15;2.10;99.90
68385;DHT22;55336;43.062;25.626;2023-03-31T01:05:46;2.00;99.90
68385;DHT22;55336;43.062;25.626;2023-03-31T01:08:15;2.00;99.90
68385;DHT22;55336;43.062;25.626;2023-03-31T01:10:42;2.00;99.90
68385;DHT22;55336;43.062;25.626;2023-03-31T01:13:09;2.00;99.90
68385;DHT22;55336;43.062;25.626;2023-03-31T01:15:36;2.00;99.90
68385;DHT22;55336;43.062;25.626;2023-03-31T01:18:03;1.90;99.90
68385;DHT22;55336;43.062;25.626;2023-03-31T01:23:32;1.90;99.90
68385;DHT22;55336;43.062;25.626;2023-03-31T01:34:17;2.10;99.90
68385;DHT22;55336;43.062;25.626;2023-03-31T01:36:45;2.20;99.90
68385;DHT22;55336;43.062;25.626;2023-03-31T01:41:48;2.30;99.90
68385;DHT22;55336;43.062;25.626;2023-03-31T01:46:57;2.50;99.90
68385;DHT22;55336;43.062;25.626;2023-03-31T01:49:29;2.60;99.90
68385;DHT22;55336;43.062;25.626;2023-03-31T01:51:59;2.60;99.90
68385;DHT22;55336;43.062;25.626;2023-03-31T01:56:56;2.80;99.90
68385;DHT22;55336;43.062;25.626;2023-03-31T01:59:26;2.80;99.90
68385;DHT22;55336;43.062;25.626;2023-03-31T02:01:53;2.90;99.90
68385;DHT22;55336;43.062;25.626;2023-03-31T02:04:21;3.00;99.90
68385;DHT22;55336;43.062;25.626;2023-03-31T02:06:56;3.00;99.90
68385;DHT22;55336;43.062;25.626;2023-03-31T02:09:25;3.10;99.90
68385;DHT22;55336;43.062;25.626;2023-03-31T02:11:52;3.20;99.90
68385;DHT22;55336;43.062;25.626;2023-03-31T02:14:20;3.20;99.90
68385;DHT22;55336;43.062;25.626;2023-03-31T02:16:47;3.30;99.90
68385;DHT22;55336;43.062;25.626;2023-03-31T02:19:15;3.30;99.90
68385;DHT22;55336;43.062;25.626;2023-03-31T02:21:43;3.30;99.90
68385;DHT22;55336;43.062;25.626;2023-03-31T02:24:10;3.40;99.90
68385;DHT22;55336;43.062;25.626;2023-03-31T02:26:39;3.40;99.90
68385;DHT22;55336;43.062;25.626;2023-03-31T02:29:06;3.50;99.90
68385;DHT22;55336;43.062;25.626;2023-03-31T02:32:16;3.50;99.90
68385;DHT22;55336;43.062;25.626;2023-03-31T02:34:21;3.60;99.90
68385;DHT22;55336;43.062;25.626;2023-03-31T02:36:48;3.70;99.90
68385;DHT22;55336;43.062;25.626;2023-03-31T02:39:15;3.70;99.90
68385;DHT22;55336;43.062;25.626;2023-03-31T02:41:42;3.80;99.90
68385;DHT22;55336;43.062;25.626;2023-03-31T02:44:08;3.90;99.90
68385;DHT22;55336;43.062;25.626;2023-03-31T02:46:34;3.90;99.90
68385;DHT22;55336;43.062;25.626;2023-03-31T02:49:01;4.00;99.90
68385;DHT22;55336;43.062;25.626;2023-03-31T02:51:48;4.30;99.90
68385;DHT22;55336;43.062;25.626;2023-03-31T03:01:57;4.10;99.90
68385;DHT22;55336;43.062;25.626;2023-03-31T03:07:16;4.20;99.90
68385;DHT22;55336;43.062;25.626;2023-03-31T03:09:47;4.30;99.90
68385;DHT22;55336;43.062;25.626;2023-03-31T03:12:16;4.30;99.90
68385;DHT22;55336;43.062;25.626;2023-03-31T03:14:47;4.30;99.90
68385;DHT22;55336;43.062;25.626;2023-03-31T03:17:38;4.30;99.90
68385;DHT22;55336;43.062;25.626;2023-03-31T03:20:02;4.30;99.90
68385;DHT22;55336;43.062;25.626;2023-03-31T03:22:34;4.30;99.90
68385;DHT22;55336;43.062;25.626;2023-03-31T03:25:00;4.30;99.90
68385;DHT22;55336;43.062;25.626;2023-03-31T03:27:26;4.40;99.90
68385;DHT22;55336;43.062;25.626;2023-03-31T03:29:52;4.30;99.90
68385;DHT22;55336;43.062;25.626;2023-03-31T03:32:18;4.40;99.90
68385;DHT22;55336;43.062;25.626;2023-03-31T03:34:44;4.40;99.90
68385;DHT22;55336;43.062;25.626;2023-03-31T03:37:10;4.50;99.90
68385;DHT22;55336;43.062;25.626;2023-03-31T03:39:36;4.50;99.90
68385;DHT22;55336;43.062;25.626;2023-03-31T03:42:02;4.60;99.90
68385;DHT22;55336;43.062;25.626;2023-03-31T03:44:28;4.60;99.90
68385;DHT22;55336;43.062;25.626;2023-03-31T03:46:54;4.70;99.90
68385;DHT22;55336;43.062;25.626;2023-03-31T03:49:19;4.70;99.90
68385;DHT22;55336;43.062;25.626;2023-03-31T03:51:45;4.70;99.90
68385;DHT22;55336;43.062;25.626;2023-03-31T03:54:11;4.70;99.90
68385;DHT22;55336;43.062;25.626;2023-03-31T03:56:37;4.80;99.90
68385;DHT22;55336;43.062;25.626;2023-03-31T03:59:03;4.80;99.90
68385;DHT22;55336;43.062;25.626;2023-03-31T04:01:29;4.80;99.90
68385;DHT22;55336;43.062;25.626;2023-03-31T04:03:54;4.90;99.90
68385;DHT22;55336;43.062;25.626;2023-03-31T04:06:20;4.90;99.90
68385;DHT22;55336;43.062;25.626;2023-03-31T04:08:46;4.90;99.90
68385;DHT22;55336;43.062;25.626;2023-03-31T04:11:15;4.90;99.90
68385;DHT22;55336;43.062;25.626;2023-03-31T04:13:42;4.90;99.90
68385;DHT22;55336;43.062;25.626;2023-03-31T04:16:08;4.90;99.90
68385;DHT22;55336;43.062;25.626;2023-03-31T04:18:34;4.90;99.90
68385;DHT22;55336;43.062;25.626;2023-03-31T04:21:01;5.00;99.90
68385;DHT22;55336;43.062;25.626;2023-03-31T04:23:34;5.00;99.90
68385;DHT22;55336;43.062;25.626;2023-03-31T04:26:07;5.10;99.90
68385;DHT22;55336;43.062;25.626;2023-03-31T04:28:34;5.10;99.90
68385;DHT22;55336;43.062;25.626;2023-03-31T04:31:00;5.10;99.90
68385;DHT22;55336;43.062;25.626;2023-03-31T04:33:27;5.20;99.90
68385;DHT22;55336;43.062;25.626;2023-03-31T04:35:52;5.20;99.90
68385;DHT22;55336;43.062;25.626;2023-03-31T04:38:20;5.20;99.90
68385;DHT22;55336;43.062;25.626;2023-03-31T04:40:46;5.30;99.90
68385;DHT22;55336;43.062;25.626;2023-03-31T04:43:12;5.30;99.90
68385;DHT22;55336;43.062;25.626;2023-03-31T04:45:38;5.30;99.90
68385;DHT22;55336;43.062;25.626;2023-03-31T04:48:04;5.40;99.90
68385;DHT22;55336;43.062;25.626;2023-03-31T04:50:30;5.40;99.90
68385;DHT22;55336;43.062;25.626;2023-03-31T04:52:57;5.40;99.90
68385;DHT22;55336;43.062;25.626;2023-03-31T04:55:22;5.50;99.90
68385;DHT22;55336;43.062;25.626;2023-03-31T04:57:48;5.50;99.90
68385;DHT22;55336;43.062;25.626;2023-03-31T05:00:14;5.60;99.90
68385;DHT22;55336;43.062;25.626;2023-03-31T05:02:40;5.60;99.90
68385;DHT22;55336;43.062;25.626;2023-03-31T05:05:06;5.70;99.90
68385;DHT22;55336;43.062;25.626;2023-03-31T05:07:32;5.70;99.90
68385;DHT22;55336;43.062;25.626;2023-03-31T05:09:57;5.70;99.90
68385;DHT22;55336;43.062;25.626;2023-03-31T05:12:23;5.70;99.90
68385;DHT22;55336;43.062;25.626;2023-03-31T05:14:50;5.90;99.90
68385;DHT22;55336;43.062;25.626;2023-03-31T05:17:15;6.10;99.90
68385;DHT22;55336;43.062;25.626;2023-03-31T05:19:42;6.10;99.90
68385;DHT22;55336;43.062;25.626;2023-03-31T05:22:08;6.30;99.90
68385;DHT22;55336;43.062;25.626;2023-03-31T05:24:34;6.20;99.90
68385;DHT22;55336;43.062;25.626;2023-03-31T05:26:59;6.30;99.90
68385;DHT22;55336;43.062;25.626;2023-03-31T05:29:25;6.30;99.90
68385;DHT22;55336;43.062;25.626;2023-03-31T05:31:51;6.40;99.90
68385;DHT22;55336;43.062;25.626;2023-03-31T05:34:18;6.60;99.90
68385;DHT22;55336;43.062;25.626;2023-03-31T05:36:44;6.70;99.90
68385;DHT22;55336;43.062;25.626;2023-03-31T05:39:10;6.70;99.90
68385;DHT22;55336;43.062;25.626;2023-03-31T05:41:35;6.80;99.90
68385;DHT22;55336;43.062;25.626;2023-03-31T05:44:01;6.90;99.90
68385;DHT22;55336;43.062;25.626;2023-03-31T05:46:27;7.00;99.90
68385;DHT22;55336;43.062;25.626;2023-03-31T05:48:53;7.00;99.90
68385;DHT22;55336;43.062;25.626;2023-03-31T05:51:18;7.10;99.90
68385;DHT22;55336;43.062;25.626;2023-03-31T05:53:44;7.00;99.90
68385;DHT22;55336;43.062;25.626;2023-03-31T05:56:10;6.90;99.90
68385;DHT22;55336;43.062;25.626;2023-03-31T05:58:36;7.00;99.90
68385;DHT22;55336;43.062;25.626;2023-03-31T06:03:32;6.80;99.90
68385;DHT22;55336;43.062;25.626;2023-03-31T06:05:57;6.80;99.90
68385;DHT22;55336;43.062;25.626;2023-03-31T06:08:25;6.70;99.90
68385;DHT22;55336;43.062;25.626;2023-03-31T06:10:51;6.70;99.90
68385;DHT22;55336;43.062;25.626;2023-03-31T06:13:17;6.80;99.90
68385;DHT22;55336;43.062;25.626;2023-03-31T06:15:43;6.70;99.90
68385;DHT22;55336;43.062;25.626;2023-03-31T06:18:16;6.60;99.90
68385;DHT22;55336;43.062;25.626;2023-03-31T06:20:42;6.60;99.90
68385;DHT22;55336;43.062;25.626;2023-03-31T06:23:08;6.70;99.90
68385;DHT22;55336;43.062;25.626;2023-03-31T06:25:36;6.80;99.90
68385;DHT22;55336;43.062;25.626;2023-03-31T06:28:02;6.90;99.90
68385;DHT22;55336;43.062;25.626;2023-03-31T06:30:27;7.00;99.90
68385;DHT22;55336;43.062;25.626;2023-03-31T06:32:53;7.10;99.90
68385;DHT22;55336;43.062;25.626;2023-03-31T06:35:19;7.00;99.90
68385;DHT22;55336;43.062;25.626;2023-03-31T06:37:45;7.00;99.90
68385;DHT22;55336;43.062;25.626;2023-03-31T06:40:11;7.00;99.90
68385;DHT22;55336;43.062;25.626;2023-03-31T06:42:37;7.00;99.90
68385;DHT22;55336;43.062;25.626;2023-03-31T06:45:02;7.00;99.90
68385;DHT22;55336;43.062;25.626;2023-03-31T06:47:28;7.00;99.90
68385;DHT22;55336;43.062;25.626;2023-03-31T06:49:54;7.10;99.90
68385;DHT22;55336;43.062;25.626;2023-03-31T06:52:21;7.20;99.90
68385;DHT22;55336;43.062;25.626;2023-03-31T06:54:47;7.30;99.90
68385;DHT22;55336;43.062;25.626;2023-03-31T06:57:13;7.50;99.90
68385;DHT22;55336;43.062;25.626;2023-03-31T06:59:40;7.50;99.90
68385;DHT22;55336;43.062;25.626;2023-03-31T07:02:06;7.50;99.90
68385;DHT22;55336;43.062;25.626;2023-03-31T07:04:35;7.60;99.90
68385;DHT22;55336;43.062;25.626;2023-03-31T07:07:07;7.70;99.90
68385;DHT22;55336;43.062;25.626;2023-03-31T07:09:32;7.70;99.90
68385;DHT22;55336;43.062;25.626;2023-03-31T07:11:59;7.80;99.90
68385;DHT22;55336;43.062;25.626;2023-03-31T07:14:25;7.70;99.90
68385;DHT22;55336;43.062;25.626;2023-03-31T07:17:06;7.90;99.90
68385;DHT22;55336;43.062;25.626;2023-03-31T07:19:37;7.70;99.90
68385;DHT22;55336;43.062;25.626;2023-03-31T07:22:06;7.90;99.90
68385;DHT22;55336;43.062;25.626;2023-03-31T07:24:33;8.10;99.90
68385;DHT22;55336;43.062;25.626;2023-03-31T07:26:59;8.30;99.90
68385;DHT22;55336;43.062;25.626;2023-03-31T07:29:25;8.40;99.90
68385;DHT22;55336;43.062;25.626;2023-03-31T07:31:51;8.40;99.90
68385;DHT22;55336;43.062;25.626;2023-03-31T07:34:17;8.40;99.90
68385;DHT22;55336;43.062;25.626;2023-03-31T07:36:43;8.50;99.90
68385;DHT22;55336;43.062;25.626;2023-03-31T07:39:09;8.60;99.90
68385;DHT22;55336;43.062;25.626;2023-03-31T07:41:35;8.30;99.90
68385;DHT22;55336;43.062;25.626;2023-03-31T07:44:02;8.40;99.90
68385;DHT22;55336;43.062;25.626;2023-03-31T07:46:27;8.50;99.90
68385;DHT22;55336;43.062;25.626;2023-03-31T07:48:54;8.60;99.90
68385;DHT22;55336;43.062;25.626;2023-03-31T07:51:21;8.60;99.90
68385;DHT22;55336;43.062;25.626;2023-03-31T07:53:49;8.50;99.90
68385;DHT22;55336;43.062;25.626;2023-03-31T07:56:20;8.70;99.90
68385;DHT22;55336;43.062;25.626;2023-03-31T07:58:46;8.80;99.90
68385;DHT22;55336;43.062;25.626;2023-03-31T08:01:16;9.00;99.90
68385;DHT22;55336;43.062;25.626;2023-03-31T08:03:42;9.20;99.90
68385;DHT22;55336;43.062;25.626;2023-03-31T08:06:08;9.50;99.90
68385;DHT22;55336;43.062;25.626;2023-03-31T08:08:34;9.50;99.90
68385;DHT22;55336;43.062;25.626;2023-03-31T08:11:03;9.70;99.90
68385;DHT22;55336;43.062;25.626;2023-03-31T08:13:28;10.20;99.90
68385;DHT22;55336;43.062;25.626;2023-03-31T08:15:54;10.60;99.90
68385;DHT22;55336;43.062;25.626;2023-03-31T08:18:20;10.70;99.90
68385;DHT22;55336;43.062;25.626;2023-03-31T08:20:46;10.70;99.90
68385;DHT22;55336;43.062;25.626;2023-03-31T08:23:14;10.90;99.90
68385;DHT22;55336;43.062;25.626;2023-03-31T08:25:40;11.10;99.90
68385;DHT22;55336;43.062;25.626;2023-03-31T08:28:06;11.30;99.90
68385;DHT22;55336;43.062;25.626;2023-03-31T08:30:41;11.40;99.90
68385;DHT22;55336;43.062;25.626;2023-03-31T08:33:07;11.70;99.90
68385;DHT22;55336;43.062;25.626;2023-03-31T08:35:33;12.10;99.90
68385;DHT22;55336;43.062;25.626;2023-03-31T08:37:59;12.60;99.90
68385;DHT22;55336;43.062;25.626;2023-03-31T08:40:26;12.90;99.90
68385;DHT22;55336;43.062;25.626;2023-03-31T08:42:54;13.10;99.90
68385;DHT22;55336;43.062;25.626;2023-03-31T08:45:21;12.90;99.90
68385;DHT22;55336;43.062;25.626;2023-03-31T08:47:49;12.90;99.90
68385;DHT22;55336;43.062;25.626;2023-03-31T08:50:18;13.20;99.90
68385;DHT22;55336;43.062;25.626;2023-03-31T08:52:50;13.30;99.90
68385;DHT22;55336;43.062;25.626;2023-03-31T08:55:21;13.40;99.90
68385;DHT22;55336;43.062;25.626;2023-03-31T09:00:35;13.30;99.90
68385;DHT22;55336;43.062;25.626;2023-03-31T09:08:17;13.60;99.90
68385;DHT22;55336;43.062;25.626;2023-03-31T09:10:50;13.60;99.90
68385;DHT22;55336;43.062;25.626;2023-03-31T09:15:54;14.30;99.90
68385;DHT22;55336;43.062;25.626;2023-03-31T09:20:49;15.10;99.90
68385;DHT22;55336;43.062;25.626;2023-03-31T09:23:32;15.30;99.90
68385;DHT22;55336;43.062;25.626;2023-03-31T09:25:59;15.50;99.90
68385;DHT22;55336;43.062;25.626;2023-03-31T09:28:36;16.10;99.90
68385;DHT22;55336;43.062;25.626;2023-03-31T09:31:04;16.70;99.90
68385;DHT22;55336;43.062;25.626;2023-03-31T09:33:32;17.90;99.90
68385;DHT22;55336;43.062;25.626;2023-03-31T09:36:00;19.00;95.40
68385;DHT22;55336;43.062;25.626;2023-03-31T09:38:26;19.60;79.70
68385;DHT22;55336;43.062;25.626;2023-03-31T09:40:56;20.40;72.70
68385;DHT22;55336;43.062;25.626;2023-03-31T09:43:23;20.90;68.20
68385;DHT22;55336;43.062;25.626;2023-03-31T09:45:51;21.30;60.00
68385;DHT22;55336;43.062;25.626;2023-03-31T09:48:18;21.00;60.80
68385;DHT22;55336;43.062;25.626;2023-03-31T09:50:46;20.30;65.30
68385;DHT22;55336;43.062;25.626;2023-03-31T09:53:22;19.90;64.50
68385;DHT22;55336;43.062;25.626;2023-03-31T09:55:51;19.40;68.30
68385;DHT22;55336;43.062;25.626;2023-03-31T09:58:17;19.10;77.70
68385;DHT22;55336;43.062;25.626;2023-03-31T10:03:23;19.10;73.80
68385;DHT22;55336;43.062;25.626;2023-03-31T10:05:49;20.00;70.00
68385;DHT22;55336;43.062;25.626;2023-03-31T10:10:48;21.30;62.60
68385;DHT22;55336;43.062;25.626;2023-03-31T10:13:19;20.50;63.80
68385;DHT22;55336;43.062;25.626;2023-03-31T10:15:45;19.50;68.70
68385;DHT22;55336;43.062;25.626;2023-03-31T10:18:12;18.60;67.60
68385;DHT22;55336;43.062;25.626;2023-03-31T10:20:42;18.00;68.00
68385;DHT22;55336;43.062;25.626;2023-03-31T10:23:27;17.60;70.00
68385;DHT22;55336;43.062;25.626;2023-03-31T10:25:54;17.30;70.70
68385;DHT22;55336;43.062;25.626;2023-03-31T10:28:29;17.30;70.30
68385;DHT22;55336;43.062;25.626;2023-03-31T10:30:59;17.10;69.50
68385;DHT22;55336;43.062;25.626;2023-03-31T10:33:31;17.00;70.40
68385;DHT22;55336;43.062;25.626;2023-03-31T10:36:07;16.90;70.00
68385;DHT22;55336;43.062;25.626;2023-03-31T10:38:38;17.00;68.30
68385;DHT22;55336;43.062;25.626;2023-03-31T10:41:05;16.90;68.30
68385;DHT22;55336;43.062;25.626;2023-03-31T10:46:00;16.80;69.80
68385;DHT22;55336;43.062;25.626;2023-03-31T10:50:53;16.70;71.40
68385;DHT22;55336;43.062;25.626;2023-03-31T10:53:19;16.60;72.70
68385;DHT22;55336;43.062;25.626;2023-03-31T11:01:13;16.60;70.20
68385;DHT22;55336;43.062;25.626;2023-03-31T11:03:50;16.60;72.30
68385;DHT22;55336;43.062;25.626;2023-03-31T11:06:21;16.60;70.60
68385;DHT22;55336;43.062;25.626;2023-03-31T11:09:15;16.70;69.50
68385;DHT22;55336;43.062;25.626;2023-03-31T11:11:42;16.80;70.00
68385;DHT22;55336;43.062;25.626;2023-03-31T11:14:37;17.00;68.90
68385;DHT22;55336;43.062;25.626;2023-03-31T11:22:36;18.20;63.60
68385;DHT22;55336;43.062;25.626;2023-03-31T11:42:53;20.60;55.60
68385;DHT22;55336;43.062;25.626;2023-03-31T11:45:21;20.60;54.70
68385;DHT22;55336;43.062;25.626;2023-03-31T11:47:49;20.00;56.40
68385;DHT22;55336;43.062;25.626;2023-03-31T11:50:26;19.70;57.20
68385;DHT22;55336;43.062;25.626;2023-03-31T11:55:52;19.70;57.20
68385;DHT22;55336;43.062;25.626;2023-03-31T11:58:21;19.50;57.40
68385;DHT22;55336;43.062;25.626;2023-03-31T12:05:50;19.10;57.40
68385;DHT22;55336;43.062;25.626;2023-03-31T12:13:47;19.30;57.20
68385;DHT22;55336;43.062;25.626;2023-03-31T12:16:22;19.40;58.00
68385;DHT22;55336;43.062;25.626;2023-03-31T12:18:57;19.50;56.70
68385;DHT22;55336;43.062;25.626;2023-03-31T12:21:23;19.80;56.20
68385;DHT22;55336;43.062;25.626;2023-03-31T12:23:50;19.90;57.10
68385;DHT22;55336;43.062;25.626;2023-03-31T12:28:42;19.80;54.90
68385;DHT22;55336;43.062;25.626;2023-03-31T12:31:10;20.00;55.00
68385;DHT22;55336;43.062;25.626;2023-03-31T12:33:41;20.30;55.60
68385;DHT22;55336;43.062;25.626;2023-03-31T12:36:22;21.20;52.60
68385;DHT22;55336;43.062;25.626;2023-03-31T12:49:15;21.40;49.50
68385;DHT22;55336;43.062;25.626;2023-03-31T12:59:38;20.50;51.60
68385;DHT22;55336;43.062;25.626;2023-03-31T13:04:42;21.40;49.80
68385;DHT22;55336;43.062;25.626;2023-03-31T13:07:12;21.20;50.10
68385;DHT22;55336;43.062;25.626;2023-03-31T13:09:39;20.70;52.10
68385;DHT22;55336;43.062;25.626;2023-03-31T13:12:12;20.00;54.30
68385;DHT22;55336;43.062;25.626;2023-03-31T13:14:38;19.50;54.60
68385;DHT22;55336;43.062;25.626;2023-03-31T13:19:47;19.90;52.80
68385;DHT22;55336;43.062;25.626;2023-03-31T13:27:48;21.30;49.70
68385;DHT22;55336;43.062;25.626;2023-03-31T13:35:45;20.70;51.00
68385;DHT22;55336;43.062;25.626;2023-03-31T13:38:18;21.00;49.20
68385;DHT22;55336;43.062;25.626;2023-03-31T13:51:36;22.30;42.90
68385;DHT22;55336;43.062;25.626;2023-03-31T14:01:44;22.60;42.30
68385;DHT22;55336;43.062;25.626;2023-03-31T14:06:43;23.00;42.60
68385;DHT22;55336;43.062;25.626;2023-03-31T14:09:19;22.40;41.20
68385;DHT22;55336;43.062;25.626;2023-03-31T14:11:47;22.70;41.80
68385;DHT22;55336;43.062;25.626;2023-03-31T14:14:13;22.90;42.40
68385;DHT22;55336;43.062;25.626;2023-03-31T14:16:44;23.40;42.10
68385;DHT22;55336;43.062;25.626;2023-03-31T14:21:44;23.30;41.60
68385;DHT22;55336;43.062;25.626;2023-03-31T14:24:26;23.70;39.30
68385;DHT22;55336;43.062;25.626;2023-03-31T14:27:02;23.50;40.60
68385;DHT22;55336;43.062;25.626;2023-03-31T14:29:43;22.90;40.10
68385;DHT22;55336;43.062;25.626;2023-03-31T14:37:22;24.00;39.00
68385;DHT22;55336;43.062;25.626;2023-03-31T14:39:52;23.40;40.90
68385;DHT22;55336;43.062;25.626;2023-03-31T14:42:23;22.80;40.40
68385;DHT22;55336;43.062;25.626;2023-03-31T14:44:57;22.90;40.90
68385;DHT22;55336;43.062;25.626;2023-03-31T14:47:26;23.00;40.20
68385;DHT22;55336;43.062;25.626;2023-03-31T14:50:04;22.40;40.00
68385;DHT22;55336;43.062;25.626;2023-03-31T14:52:31;22.50;40.60
68385;DHT22;55336;43.062;25.626;2023-03-31T14:54:58;23.00;41.60
68385;DHT22;55336;43.062;25.626;2023-03-31T14:57:29;23.20;40.10
68385;DHT22;55336;43.062;25.626;2023-03-31T14:59:57;23.10;40.90
68385;DHT22;55336;43.062;25.626;2023-03-31T15:02:33;22.50;42.40
68385;DHT22;55336;43.062;25.626;2023-03-31T15:05:06;22.30;41.30
68385;DHT22;55336;43.062;25.626;2023-03-31T15:07:32;21.80;42.90
68385;DHT22;55336;43.062;25.626;2023-03-31T15:09:59;21.20;45.40
68385;DHT22;55336;43.062;25.626;2023-03-31T15:12:25;21.10;44.50
68385;DHT22;55336;43.062;25.626;2023-03-31T15:14:54;20.90;46.20
68385;DHT22;55336;43.062;25.626;2023-03-31T15:17:22;21.00;45.60
68385;DHT22;55336;43.062;25.626;2023-03-31T15:19:55;20.60;46.00
68385;DHT22;55336;43.062;25.626;2023-03-31T15:22:22;20.80;45.90
68385;DHT22;55336;43.062;25.626;2023-03-31T15:24:48;21.10;44.70
68385;DHT22;55336;43.062;25.626;2023-03-31T15:27:17;21.40;45.00
68385;DHT22;55336;43.062;25.626;2023-03-31T15:29:48;21.80;44.60
68385;DHT22;55336;43.062;25.626;2023-03-31T15:34:44;20.80;45.60
68385;DHT22;55336;43.062;25.626;2023-03-31T15:37:11;20.40;46.50
68385;DHT22;55336;43.062;25.626;2023-03-31T15:39:36;20.20;46.80
68385;DHT22;55336;43.062;25.626;2023-03-31T15:42:03;20.00;47.90
68385;DHT22;55336;43.062;25.626;2023-03-31T15:46:59;19.40;50.40
68385;DHT22;55336;43.062;25.626;2023-03-31T15:49:26;19.50;49.90
68385;DHT22;55336;43.062;25.626;2023-03-31T15:51:53;19.40;49.80
68385;DHT22;55336;43.062;25.626;2023-03-31T15:57:09;19.30;50.60
68385;DHT22;55336;43.062;25.626;2023-03-31T15:59:46;19.10;51.20
68385;DHT22;55336;43.062;25.626;2023-03-31T16:02:15;19.00;51.00
68385;DHT22;55336;43.062;25.626;2023-03-31T16:04:42;18.70;53.10
68385;DHT22;55336;43.062;25.626;2023-03-31T16:07:08;18.50;53.10
68385;DHT22;55336;43.062;25.626;2023-03-31T16:12:09;18.20;52.20
68385;DHT22;55336;43.062;25.626;2023-03-31T16:14:37;18.10;53.00
68385;DHT22;55336;43.062;25.626;2023-03-31T16:17:05;17.90;53.40
68385;DHT22;55336;43.062;25.626;2023-03-31T16:19:37;17.80;54.60
68385;DHT22;55336;43.062;25.626;2023-03-31T16:22:03;17.50;57.00
68385;DHT22;55336;43.062;25.626;2023-03-31T16:24:30;17.30;56.00
68385;DHT22;55336;43.062;25.626;2023-03-31T16:26:57;17.00;60.90
68385;DHT22;55336;43.062;25.626;2023-03-31T16:29:23;16.70;61.40
68385;DHT22;55336;43.062;25.626;2023-03-31T16:31:49;16.50;61.50
68385;DHT22;55336;43.062;25.626;2023-03-31T16:34:30;16.20;62.70
68385;DHT22;55336;43.062;25.626;2023-03-31T16:36:56;15.90;65.70
68385;DHT22;55336;43.062;25.626;2023-03-31T16:39:22;15.60;66.00
68385;DHT22;55336;43.062;25.626;2023-03-31T16:41:48;15.40;68.20
68385;DHT22;55336;43.062;25.626;2023-03-31T16:44:14;15.10;69.40
68385;DHT22;55336;43.062;25.626;2023-03-31T16:46:40;14.80;70.00
68385;DHT22;55336;43.062;25.626;2023-03-31T16:49:06;14.60;71.10
68385;DHT22;55336;43.062;25.626;2023-03-31T16:51:32;14.30;75.70
68385;DHT22;55336;43.062;25.626;2023-03-31T16:53:57;14.00;79.10
68385;DHT22;55336;43.062;25.626;2023-03-31T16:56:23;13.80;82.60
68385;DHT22;55336;43.062;25.626;2023-03-31T16:58:49;13.60;87.70
68385;DHT22;55336;43.062;25.626;2023-03-31T17:01:15;13.30;87.90
68385;DHT22;55336;43.062;25.626;2023-03-31T17:03:41;13.10;89.10
68385;DHT22;55336;43.062;25.626;2023-03-31T17:06:08;12.90;93.90
68385;DHT22;55336;43.062;25.626;2023-03-31T17:08:34;12.70;97.20
68385;DHT22;55336;43.062;25.626;2023-03-31T17:13:26;12.30;99.90
68385;DHT22;55336;43.062;25.626;2023-03-31T17:15:52;12.10;99.90
68385;DHT22;55336;43.062;25.626;2023-03-31T17:18:19;11.90;99.90
68385;DHT22;55336;43.062;25.626;2023-03-31T17:20:45;11.80;99.90
68385;DHT22;55336;43.062;25.626;2023-03-31T17:23:11;11.60;99.90
68385;DHT22;55336;43.062;25.626;2023-03-31T17:25:37;11.40;99.90
68385;DHT22;55336;43.062;25.626;2023-03-31T17:28:03;11.30;99.90
68385;DHT22;55336;43.062;25.626;2023-03-31T17:30:29;11.10;99.90
68385;DHT22;55336;43.062;25.626;2023-03-31T17:32:56;11.00;99.90
68385;DHT22;55336;43.062;25.626;2023-03-31T17:35:21;10.90;99.90
68385;DHT22;55336;43.062;25.626;2023-03-31T17:37:48;10.80;99.90
68385;DHT22;55336;43.062;25.626;2023-03-31T17:40:18;10.70;99.90
68385;DHT22;55336;43.062;25.626;2023-03-31T17:42:44;10.60;99.90
68385;DHT22;55336;43.062;25.626;2023-03-31T17:45:11;10.50;99.90
68385;DHT22;55336;43.062;25.626;2023-03-31T17:47:38;10.30;99.90
68385;DHT22;55336;43.062;25.626;2023-03-31T17:50:04;10.30;99.90
68385;DHT22;55336;43.062;25.626;2023-03-31T17:52:30;10.20;99.90
68385;DHT22;55336;43.062;25.626;2023-03-31T17:54:57;10.10;99.90
68385;DHT22;55336;43.062;25.626;2023-03-31T17:57:23;10.10;99.90
68385;DHT22;55336;43.062;25.626;2023-03-31T17:59:50;9.90;99.90
68385;DHT22;55336;43.062;25.626;2023-03-31T18:02:16;9.90;99.90
68385;DHT22;55336;43.062;25.626;2023-03-31T18:04:43;9.80;99.90
68385;DHT22;55336;43.062;25.626;2023-03-31T18:07:10;9.80;99.90
68385;DHT22;55336;43.062;25.626;2023-03-31T18:09:36;9.70;99.90
68385;DHT22;55336;43.062;25.626;2023-03-31T18:12:02;9.70;99.90
68385;DHT22;55336;43.062;25.626;2023-03-31T18:14:28;9.70;99.90
68385;DHT22;55336;43.062;25.626;2023-03-31T18:16:54;9.60;99.90
68385;DHT22;55336;43.062;25.626;2023-03-31T18:19:21;9.60;99.90
68385;DHT22;55336;43.062;25.626;2023-03-31T18:21:47;9.50;99.90
68385;DHT22;55336;43.062;25.626;2023-03-31T18:24:12;9.40;99.90
68385;DHT22;55336;43.062;25.626;2023-03-31T18:26:38;9.30;99.90